sensor_id;sensor_type;location;lat;lon;timestamp;temperature;humidity
22623;DHT22;11478;51.094;7.030;2023-05-06T00:00:18;10.90;99.90
22623;DHT22;11478;51.094;7.030;2023-05-06T00:02:46;11.00;99.90
22623;DHT22;11478;51.094;7.030;2023-05-06T00:05:12;11.00;99.90
22623;DHT22;11478;51.094;7.030;2023-05-06T00:07:38;11.00;99.90
22623;DHT22;11478;51.094;7.030;2023-05-06T00:10:05;11.00;99.90
22623;DHT22;11478;51.094;7.030;2023-05-06T00:12:32;11.00;99.90
22623;DHT22;11478;51.094;7.030;2023-05-06T00:14:58;11.00;99.90
22623;DHT22;11478;51.094;7.030;2023-05-06T00:17:25;11.10;99.90
22623;DHT22;11478;51.094;7.030;2023-05-06T00:19:50;11.10;99.90
22623;DHT22;11478;51.094;7.030;2023-05-06T00:22:23;11.10;99.90
22623;DHT22;11478;51.094;7.030;2023-05-06T00:24:49;11.20;99.90
22623;DHT22;11478;51.094;7.030;2023-05-06T00:27:20;11.20;99.90
22623;DHT22;11478;51.094;7.030;2023-05-06T00:29:46;11.20;99.90
22623;DHT22;11478;51.094;7.030;2023-05-06T00:32:13;11.20;99.90
22623;DHT22;11478;51.094;7.030;2023-05-06T00:37:15;11.20;99.90
22623;DHT22;11478;51.094;7.030;2023-05-06T00:39:46;11.20;99.90
22623;DHT22;11478;51.094;7.030;2023-05-06T00:42:14;11.30;99.90
22623;DHT22;11478;51.094;7.030;2023-05-06T00:44:39;11.30;99.90
22623;DHT22;11478;51.094;7.030;2023-05-06T00:47:10;11.30;99.90
22623;DHT22;11478;51.094;7.030;2023-05-06T00:49:35;11.30;99.90
22623;DHT22;11478;51.094;7.030;2023-05-06T00:52:03;11.30;99.90
22623;DHT22;11478;51.094;7.030;2023-05-06T00:54:29;11.30;99.90
22623;DHT22;11478;51.094;7.030;2023-05-06T00:56:56;11.30;99.90
22623;DHT22;11478;51.094;7.030;2023-05-06T00:59:22;11.30;99.90
22623;DHT22;11478;51.094;7.030;2023-05-06T01:01:48;11.30;99.90
22623;DHT22;11478;51.094;7.030;2023-05-06T01:04:16;11.30;99.90
22623;DHT22;11478;51.094;7.030;2023-05-06T01:07:07;11.30;99.90
22623;DHT22;11478;51.094;7.030;2023-05-06T01:09:48;11.20;99.90
22623;DHT22;11478;51.094;7.030;2023-05-06T01:13:06;11.20;99.90
22623;DHT22;11478;51.094;7.030;2023-05-06T01:15:46;11.10;99.90
22623;DHT22;11478;51.094;7.030;2023-05-06T01:18:20;11.10;99.90
22623;DHT22;11478;51.094;7.030;2023-05-06T01:20:50;11.10;99.90
22623;DHT22;11478;51.094;7.030;2023-05-06T01:23:17;11.10;99.90
22623;DHT22;11478;51.094;7.030;2023-05-06T01:25:44;11.00;99.90
22623;DHT22;11478;51.094;7.030;2023-05-06T01:28:11;11.00;99.90
22623;DHT22;11478;51.094;7.030;2023-05-06T01:37:10;10.90;99.90
22623;DHT22;11478;51.094;7.030;2023-05-06T01:39:40;10.80;99.90
22623;DHT22;11478;51.094;7.030;2023-05-06T01:42:09;10.80;99.90
22623;DHT22;11478;51.094;7.030;2023-05-06T01:44:38;10.70;99.90
22623;DHT22;11478;51.094;7.030;2023-05-06T01:47:04;10.60;99.90
22623;DHT22;11478;51.094;7.030;2023-05-06T01:49:32;10.60;99.90
22623;DHT22;11478;51.094;7.030;2023-05-06T01:52:01;10.60;99.90
22623;DHT22;11478;51.094;7.030;2023-05-06T01:54:27;10.60;99.90
22623;DHT22;11478;51.094;7.030;2023-05-06T01:56:54;10.60;99.90
22623;DHT22;11478;51.094;7.030;2023-05-06T01:59:20;10.60;99.90
22623;DHT22;11478;51.094;7.030;2023-05-06T02:01:46;10.60;99.90
22623;DHT22;11478;51.094;7.030;2023-05-06T02:04:13;10.50;99.90
22623;DHT22;11478;51.094;7.030;2023-05-06T02:06:41;10.50;99.90
22623;DHT22;11478;51.094;7.030;2023-05-06T02:09:07;10.50;99.90
22623;DHT22;11478;51.094;7.030;2023-05-06T02:11:33;10.40;99.90
22623;DHT22;11478;51.094;7.030;2023-05-06T02:13:59;10.30;99.90
22623;DHT22;11478;51.094;7.030;2023-05-06T02:16:33;10.30;99.90
22623;DHT22;11478;51.094;7.030;2023-05-06T02:18:59;10.20;99.90
22623;DHT22;11478;51.094;7.030;2023-05-06T02:21:27;10.10;99.90
22623;DHT22;11478;51.094;7.030;2023-05-06T02:23:52;10.10;99.90
22623;DHT22;11478;51.094;7.030;2023-05-06T02:26:19;10.00;99.90
22623;DHT22;11478;51.094;7.030;2023-05-06T02:28:45;9.90;99.90
22623;DHT22;11478;51.094;7.030;2023-05-06T02:31:16;9.80;99.90
22623;DHT22;11478;51.094;7.030;2023-05-06T02:33:45;9.80;99.90
22623;DHT22;11478;51.094;7.030;2023-05-06T02:36:11;9.70;99.90
22623;DHT22;11478;51.094;7.030;2023-05-06T02:38:37;9.70;99.90
22623;DHT22;11478;51.094;7.030;2023-05-06T02:41:03;9.70;99.90
22623;DHT22;11478;51.094;7.030;2023-05-06T02:43:37;9.70;99.90
22623;DHT22;11478;51.094;7.030;2023-05-06T02:46:03;9.60;99.90
22623;DHT22;11478;51.094;7.030;2023-05-06T02:48:29;9.50;99.90
22623;DHT22;11478;51.094;7.030;2023-05-06T02:50:55;9.50;99.90
22623;DHT22;11478;51.094;7.030;2023-05-06T02:53:21;9.50;99.90
22623;DHT22;11478;51.094;7.030;2023-05-06T02:55:47;9.40;99.90
22623;DHT22;11478;51.094;7.030;2023-05-06T02:58:13;9.40;99.90
22623;DHT22;11478;51.094;7.030;2023-05-06T03:00:38;9.40;99.90
22623;DHT22;11478;51.094;7.030;2023-05-06T03:03:04;9.40;99.90
22623;DHT22;11478;51.094;7.030;2023-05-06T03:05:30;9.40;99.90
22623;DHT22;11478;51.094;7.030;2023-05-06T03:08:00;9.30;99.90
22623;DHT22;11478;51.094;7.030;2023-05-06T03:10:27;9.30;99.90
22623;DHT22;11478;51.094;7.030;2023-05-06T03:12:53;9.30;99.90
22623;DHT22;11478;51.094;7.030;2023-05-06T03:15:19;9.30;99.90
22623;DHT22;11478;51.094;7.030;2023-05-06T03:17:54;9.30;99.90
22623;DHT22;11478;51.094;7.030;2023-05-06T03:20:20;9.20;99.90
22623;DHT22;11478;51.094;7.030;2023-05-06T03:22:47;9.10;99.90
22623;DHT22;11478;51.094;7.030;2023-05-06T03:25:13;9.10;99.90
22623;DHT22;11478;51.094;7.030;2023-05-06T03:27:39;9.10;99.90
22623;DHT22;11478;51.094;7.030;2023-05-06T03:30:06;9.10;99.90
22623;DHT22;11478;51.094;7.030;2023-05-06T03:32:37;9.10;99.90
22623;DHT22;11478;51.094;7.030;2023-05-06T03:35:03;9.10;99.90
22623;DHT22;11478;51.094;7.030;2023-05-06T03:37:30;9.10;99.90
22623;DHT22;11478;51.094;7.030;2023-05-06T03:39:57;9.10;99.90
22623;DHT22;11478;51.094;7.030;2023-05-06T03:42:23;9.00;99.90
22623;DHT22;11478;51.094;7.030;2023-05-06T03:44:52;8.90;99.90
22623;DHT22;11478;51.094;7.030;2023-05-06T03:47:18;8.90;99.90
22623;DHT22;11478;51.094;7.030;2023-05-06T03:49:44;8.90;99.90
22623;DHT22;11478;51.094;7.030;2023-05-06T03:52:09;8.90;99.90
22623;DHT22;11478;51.094;7.030;2023-05-06T03:54:35;8.90;99.90
22623;DHT22;11478;51.094;7.030;2023-05-06T03:57:01;8.90;99.90
22623;DHT22;11478;51.094;7.030;2023-05-06T03:59:35;8.90;99.90
22623;DHT22;11478;51.094;7.030;2023-05-06T04:02:00;8.90;99.90
22623;DHT22;11478;51.094;7.030;2023-05-06T04:04:27;8.90;99.90
22623;DHT22;11478;51.094;7.030;2023-05-06T04:06:54;8.80;99.90
22623;DHT22;11478;51.094;7.030;2023-05-06T04:09:20;8.80;99.90
22623;DHT22;11478;51.094;7.030;2023-05-06T04:11:46;8.80;99.90
22623;DHT22;11478;51.094;7.030;2023-05-06T04:14:12;8.80;99.90
22623;DHT22;11478;51.094;7.030;2023-05-06T04:16:38;8.80;99.90
22623;DHT22;11478;51.094;7.030;2023-05-06T04:19:07;8.70;99.90
22623;DHT22;11478;51.094;7.030;2023-05-06T04:21:33;8.70;99.90
22623;DHT22;11478;51.094;7.030;2023-05-06T04:24:02;8.70;99.90
22623;DHT22;11478;51.094;7.030;2023-05-06T04:26:28;8.70;99.90
22623;DHT22;11478;51.094;7.030;2023-05-06T04:29:01;8.80;99.90
22623;DHT22;11478;51.094;7.030;2023-05-06T04:31:27;8.80;99.90
22623;DHT22;11478;51.094;7.030;2023-05-06T04:33:54;8.80;99.90
22623;DHT22;11478;51.094;7.030;2023-05-06T04:36:20;8.80;99.90
22623;DHT22;11478;51.094;7.030;2023-05-06T04:38:46;8.80;99.90
22623;DHT22;11478;51.094;7.030;2023-05-06T04:41:12;8.80;99.90
22623;DHT22;11478;51.094;7.030;2023-05-06T04:44:00;8.90;99.90
22623;DHT22;11478;51.094;7.030;2023-05-06T04:46:26;8.90;99.90
22623;DHT22;11478;51.094;7.030;2023-05-06T04:48:52;8.90;99.90
22623;DHT22;11478;51.094;7.030;2023-05-06T04:51:20;8.90;99.90
22623;DHT22;11478;51.094;7.030;2023-05-06T04:53:46;8.90;99.90
22623;DHT22;11478;51.094;7.030;2023-05-06T04:56:12;8.90;99.90
22623;DHT22;11478;51.094;7.030;2023-05-06T04:58:44;9.00;99.90
22623;DHT22;11478;51.094;7.030;2023-05-06T05:01:10;9.10;99.90
22623;DHT22;11478;51.094;7.030;2023-05-06T05:03:39;9.10;99.90
22623;DHT22;11478;51.094;7.030;2023-05-06T05:06:05;9.20;99.90
22623;DHT22;11478;51.094;7.030;2023-05-06T05:08:41;9.30;99.90
22623;DHT22;11478;51.094;7.030;2023-05-06T05:11:07;9.30;99.90
22623;DHT22;11478;51.094;7.030;2023-05-06T05:13:39;9.30;99.90
22623;DHT22;11478;51.094;7.030;2023-05-06T05:16:05;9.30;99.90
22623;DHT22;11478;51.094;7.030;2023-05-06T05:18:50;9.40;99.90
22623;DHT22;11478;51.094;7.030;2023-05-06T05:21:16;9.50;99.90
22623;DHT22;11478;51.094;7.030;2023-05-06T05:23:42;9.50;99.90
22623;DHT22;11478;51.094;7.030;2023-05-06T05:26:08;9.60;99.90
22623;DHT22;11478;51.094;7.030;2023-05-06T05:28:34;9.60;99.90
22623;DHT22;11478;51.094;7.030;2023-05-06T05:31:03;9.60;99.90
22623;DHT22;11478;51.094;7.030;2023-05-06T05:33:31;9.60;99.90
22623;DHT22;11478;51.094;7.030;2023-05-06T05:35:57;9.70;99.90
22623;DHT22;11478;51.094;7.030;2023-05-06T05:38:24;9.70;99.90
22623;DHT22;11478;51.094;7.030;2023-05-06T05:40:50;9.80;99.90
22623;DHT22;11478;51.094;7.030;2023-05-06T05:43:17;9.70;99.90
22623;DHT22;11478;51.094;7.030;2023-05-06T05:45:45;9.80;99.90
22623;DHT22;11478;51.094;7.030;2023-05-06T05:48:19;9.90;99.90
22623;DHT22;11478;51.094;7.030;2023-05-06T05:50:45;10.00;99.90
22623;DHT22;11478;51.094;7.030;2023-05-06T05:53:15;10.10;99.90
22623;DHT22;11478;51.094;7.030;2023-05-06T05:55:41;10.20;99.90
22623;DHT22;11478;51.094;7.030;2023-05-06T05:58:23;10.20;99.90
22623;DHT22;11478;51.094;7.030;2023-05-06T06:00:49;10.30;99.90
22623;DHT22;11478;51.094;7.030;2023-05-06T06:03:17;10.50;99.90
22623;DHT22;11478;51.094;7.030;2023-05-06T06:05:43;11.10;99.90
22623;DHT22;11478;51.094;7.030;2023-05-06T06:11:13;11.80;99.90
22623;DHT22;11478;51.094;7.030;2023-05-06T06:13:40;12.10;99.90
22623;DHT22;11478;51.094;7.030;2023-05-06T06:16:06;12.50;99.90
22623;DHT22;11478;51.094;7.030;2023-05-06T06:18:34;12.50;99.90
22623;DHT22;11478;51.094;7.030;2023-05-06T06:20:59;12.50;99.90
22623;DHT22;11478;51.094;7.030;2023-05-06T06:23:33;12.40;99.90
22623;DHT22;11478;51.094;7.030;2023-05-06T06:25:58;12.30;99.90
22623;DHT22;11478;51.094;7.030;2023-05-06T06:28:38;12.20;99.90
22623;DHT22;11478;51.094;7.030;2023-05-06T06:31:11;12.20;99.90
22623;DHT22;11478;51.094;7.030;2023-05-06T06:33:37;12.20;99.90
22623;DHT22;11478;51.094;7.030;2023-05-06T06:36:03;12.30;99.90
22623;DHT22;11478;51.094;7.030;2023-05-06T06:38:33;12.40;99.90
22623;DHT22;11478;51.094;7.030;2023-05-06T06:40:59;12.50;99.90
22623;DHT22;11478;51.094;7.030;2023-05-06T06:43:29;12.60;99.90
22623;DHT22;11478;51.094;7.030;2023-05-06T06:45:55;12.70;99.90
22623;DHT22;11478;51.094;7.030;2023-05-06T06:48:21;13.00;99.90
22623;DHT22;11478;51.094;7.030;2023-05-06T06:50:50;13.20;99.90
22623;DHT22;11478;51.094;7.030;2023-05-06T06:53:17;13.70;99.90
22623;DHT22;11478;51.094;7.030;2023-05-06T06:55:44;13.90;99.90
22623;DHT22;11478;51.094;7.030;2023-05-06T06:58:10;13.90;99.90
22623;DHT22;11478;51.094;7.030;2023-05-06T07:00:36;13.90;99.90
22623;DHT22;11478;51.094;7.030;2023-05-06T07:03:02;13.80;99.90
22623;DHT22;11478;51.094;7.030;2023-05-06T07:05:28;13.80;99.90
22623;DHT22;11478;51.094;7.030;2023-05-06T07:07:54;13.80;99.90
22623;DHT22;11478;51.094;7.030;2023-05-06T07:10:20;13.80;99.90
22623;DHT22;11478;51.094;7.030;2023-05-06T07:12:47;13.80;99.90
22623;DHT22;11478;51.094;7.030;2023-05-06T07:15:12;13.80;99.90
22623;DHT22;11478;51.094;7.030;2023-05-06T07:17:38;13.80;99.90
22623;DHT22;11478;51.094;7.030;2023-05-06T07:20:14;13.80;99.90
22623;DHT22;11478;51.094;7.030;2023-05-06T07:22:40;13.90;99.90
22623;DHT22;11478;51.094;7.030;2023-05-06T07:25:07;14.00;99.90
22623;DHT22;11478;51.094;7.030;2023-05-06T07:27:33;14.00;99.90
22623;DHT22;11478;51.094;7.030;2023-05-06T07:30:06;14.10;99.90
22623;DHT22;11478;51.094;7.030;2023-05-06T07:32:32;14.20;99.90
22623;DHT22;11478;51.094;7.030;2023-05-06T07:35:00;14.30;99.90
22623;DHT22;11478;51.094;7.030;2023-05-06T07:37:26;14.50;99.90
22623;DHT22;11478;51.094;7.030;2023-05-06T07:39:52;14.70;99.90
22623;DHT22;11478;51.094;7.030;2023-05-06T07:42:18;14.80;99.90
22623;DHT22;11478;51.094;7.030;2023-05-06T07:44:52;15.00;99.90
22623;DHT22;11478;51.094;7.030;2023-05-06T07:47:26;15.10;99.90
22623;DHT22;11478;51.094;7.030;2023-05-06T07:49:53;15.30;99.90
22623;DHT22;11478;51.094;7.030;2023-05-06T07:52:19;15.70;99.90
22623;DHT22;11478;51.094;7.030;2023-05-06T07:54:46;16.50;99.90
22623;DHT22;11478;51.094;7.030;2023-05-06T07:57:13;17.40;99.90
22623;DHT22;11478;51.094;7.030;2023-05-06T07:59:39;17.90;99.90
22623;DHT22;11478;51.094;7.030;2023-05-06T08:02:05;18.00;99.90
22623;DHT22;11478;51.094;7.030;2023-05-06T08:04:35;18.00;99.90
22623;DHT22;11478;51.094;7.030;2023-05-06T08:07:01;17.80;99.90
22623;DHT22;11478;51.094;7.030;2023-05-06T08:09:28;17.60;99.90
22623;DHT22;11478;51.094;7.030;2023-05-06T08:11:54;17.40;99.90
22623;DHT22;11478;51.094;7.030;2023-05-06T08:14:19;17.30;99.90
22623;DHT22;11478;51.094;7.030;2023-05-06T08:16:45;17.10;99.90
22623;DHT22;11478;51.094;7.030;2023-05-06T08:19:12;16.90;99.90
22623;DHT22;11478;51.094;7.030;2023-05-06T08:21:38;16.70;99.90
22623;DHT22;11478;51.094;7.030;2023-05-06T08:24:07;16.60;99.90
22623;DHT22;11478;51.094;7.030;2023-05-06T08:26:35;16.60;99.90
22623;DHT22;11478;51.094;7.030;2023-05-06T08:29:02;16.80;99.90
22623;DHT22;11478;51.094;7.030;2023-05-06T08:31:28;17.20;99.90
22623;DHT22;11478;51.094;7.030;2023-05-06T08:33:55;17.80;99.90
22623;DHT22;11478;51.094;7.030;2023-05-06T08:36:21;18.10;99.90
22623;DHT22;11478;51.094;7.030;2023-05-06T08:38:47;18.10;99.90
22623;DHT22;11478;51.094;7.030;2023-05-06T08:41:23;17.80;99.90
22623;DHT22;11478;51.094;7.030;2023-05-06T08:43:53;17.70;99.90
22623;DHT22;11478;51.094;7.030;2023-05-06T08:46:26;17.80;99.90
22623;DHT22;11478;51.094;7.030;2023-05-06T08:48:55;17.70;99.90
22623;DHT22;11478;51.094;7.030;2023-05-06T08:51:45;17.50;99.90
22623;DHT22;11478;51.094;7.030;2023-05-06T08:54:13;17.20;99.90
22623;DHT22;11478;51.094;7.030;2023-05-06T08:56:46;17.10;99.90
22623;DHT22;11478;51.094;7.030;2023-05-06T08:59:13;17.00;99.90
22623;DHT22;11478;51.094;7.030;2023-05-06T09:01:42;16.90;99.90
22623;DHT22;11478;51.094;7.030;2023-05-06T09:04:09;16.90;99.90
22623;DHT22;11478;51.094;7.030;2023-05-06T09:06:39;16.90;99.90
22623;DHT22;11478;51.094;7.030;2023-05-06T09:09:04;17.00;99.90
22623;DHT22;11478;51.094;7.030;2023-05-06T09:11:39;17.00;99.90
22623;DHT22;11478;51.094;7.030;2023-05-06T09:14:12;17.00;99.90
22623;DHT22;11478;51.094;7.030;2023-05-06T09:16:50;17.00;99.90
22623;DHT22;11478;51.094;7.030;2023-05-06T09:19:18;17.00;99.90
22623;DHT22;11478;51.094;7.030;2023-05-06T09:21:47;17.10;99.90
22623;DHT22;11478;51.094;7.030;2023-05-06T09:24:14;17.00;99.90
22623;DHT22;11478;51.094;7.030;2023-05-06T09:26:42;17.00;99.90
22623;DHT22;11478;51.094;7.030;2023-05-06T09:29:09;17.00;99.90
22623;DHT22;11478;51.094;7.030;2023-05-06T09:31:52;17.10;99.90
22623;DHT22;11478;51.094;7.030;2023-05-06T09:34:18;17.10;99.90
22623;DHT22;11478;51.094;7.030;2023-05-06T09:36:47;17.20;99.90
22623;DHT22;11478;51.094;7.030;2023-05-06T09:39:13;17.50;99.90
22623;DHT22;11478;51.094;7.030;2023-05-06T09:41:39;17.70;99.90
22623;DHT22;11478;51.094;7.030;2023-05-06T09:44:08;17.90;99.90
22623;DHT22;11478;51.094;7.030;2023-05-06T09:46:34;18.10;99.90
22623;DHT22;11478;51.094;7.030;2023-05-06T09:49:00;18.30;99.90
22623;DHT22;11478;51.094;7.030;2023-05-06T09:51:26;18.50;99.90
22623;DHT22;11478;51.094;7.030;2023-05-06T09:53:53;18.70;99.90
22623;DHT22;11478;51.094;7.030;2023-05-06T09:56:20;18.80;99.90
22623;DHT22;11478;51.094;7.030;2023-05-06T09:58:58;18.70;99.90
22623;DHT22;11478;51.094;7.030;2023-05-06T10:01:26;18.80;99.90
22623;DHT22;11478;51.094;7.030;2023-05-06T10:03:54;18.80;99.90
22623;DHT22;11478;51.094;7.030;2023-05-06T10:06:22;18.90;99.90
22623;DHT22;11478;51.094;7.030;2023-05-06T10:08:49;19.10;99.90
22623;DHT22;11478;51.094;7.030;2023-05-06T10:11:15;19.30;99.90
22623;DHT22;11478;51.094;7.030;2023-05-06T10:13:43;19.60;99.90
22623;DHT22;11478;51.094;7.030;2023-05-06T10:16:10;19.60;99.90
22623;DHT22;11478;51.094;7.030;2023-05-06T10:18:40;19.70;99.90
22623;DHT22;11478;51.094;7.030;2023-05-06T10:21:15;20.00;99.90
22623;DHT22;11478;51.094;7.030;2023-05-06T10:23:53;20.30;99.90
22623;DHT22;11478;51.094;7.030;2023-05-06T10:26:36;20.40;99.90
22623;DHT22;11478;51.094;7.030;2023-05-06T10:29:08;20.30;99.90
22623;DHT22;11478;51.094;7.030;2023-05-06T10:31:39;20.20;99.90
22623;DHT22;11478;51.094;7.030;2023-05-06T10:34:15;20.10;99.90
22623;DHT22;11478;51.094;7.030;2023-05-06T10:36:45;19.90;99.90
22623;DHT22;11478;51.094;7.030;2023-05-06T10:39:13;19.90;99.90
22623;DHT22;11478;51.094;7.030;2023-05-06T10:41:40;19.70;99.90
22623;DHT22;11478;51.094;7.030;2023-05-06T10:44:11;19.60;99.90
22623;DHT22;11478;51.094;7.030;2023-05-06T10:46:57;19.70;99.90
22623;DHT22;11478;51.094;7.030;2023-05-06T10:49:27;20.10;99.90
22623;DHT22;11478;51.094;7.030;2023-05-06T10:52:13;20.30;99.90
22623;DHT22;11478;51.094;7.030;2023-05-06T10:54:49;20.40;99.90
22623;DHT22;11478;51.094;7.030;2023-05-06T10:57:16;20.40;99.90
22623;DHT22;11478;51.094;7.030;2023-05-06T10:59:46;20.40;99.90
22623;DHT22;11478;51.094;7.030;2023-05-06T11:02:12;20.40;99.90
22623;DHT22;11478;51.094;7.030;2023-05-06T11:04:39;20.30;99.90
22623;DHT22;11478;51.094;7.030;2023-05-06T11:07:13;20.10;99.90
22623;DHT22;11478;51.094;7.030;2023-05-06T11:10:00;19.90;99.90
22623;DHT22;11478;51.094;7.030;2023-05-06T11:12:52;19.80;99.90
22623;DHT22;11478;51.094;7.030;2023-05-06T11:15:38;19.90;99.90
22623;DHT22;11478;51.094;7.030;2023-05-06T11:26:12;19.70;99.90
22623;DHT22;11478;51.094;7.030;2023-05-06T11:28:38;19.50;99.90
22623;DHT22;11478;51.094;7.030;2023-05-06T11:31:07;19.40;99.90
22623;DHT22;11478;51.094;7.030;2023-05-06T11:33:35;19.50;99.90
22623;DHT22;11478;51.094;7.030;2023-05-06T11:36:06;19.50;99.90
22623;DHT22;11478;51.094;7.030;2023-05-06T11:38:41;19.70;99.90
22623;DHT22;11478;51.094;7.030;2023-05-06T11:41:08;19.90;99.90
22623;DHT22;11478;51.094;7.030;2023-05-06T11:43:35;20.10;99.90
22623;DHT22;11478;51.094;7.030;2023-05-06T11:46:01;20.20;99.90
22623;DHT22;11478;51.094;7.030;2023-05-06T11:48:28;20.30;99.90
22623;DHT22;11478;51.094;7.030;2023-05-06T11:50:54;20.40;99.90
22623;DHT22;11478;51.094;7.030;2023-05-06T11:53:23;20.50;99.90
22623;DHT22;11478;51.094;7.030;2023-05-06T11:55:52;20.50;99.90
22623;DHT22;11478;51.094;7.030;2023-05-06T11:58:26;20.50;99.90
22623;DHT22;11478;51.094;7.030;2023-05-06T12:00:54;20.60;99.90
22623;DHT22;11478;51.094;7.030;2023-05-06T12:03:23;20.70;99.90
22623;DHT22;11478;51.094;7.030;2023-05-06T12:05:52;20.80;99.90
22623;DHT22;11478;51.094;7.030;2023-05-06T12:08:30;20.80;99.90
22623;DHT22;11478;51.094;7.030;2023-05-06T12:11:01;20.90;99.90
22623;DHT22;11478;51.094;7.030;2023-05-06T12:13:28;21.00;99.90
22623;DHT22;11478;51.094;7.030;2023-05-06T12:15:56;21.10;99.90
22623;DHT22;11478;51.094;7.030;2023-05-06T12:18:29;21.10;99.90
22623;DHT22;11478;51.094;7.030;2023-05-06T12:20:56;21.20;99.90
22623;DHT22;11478;51.094;7.030;2023-05-06T12:23:22;21.20;99.90
22623;DHT22;11478;51.094;7.030;2023-05-06T12:26:02;21.30;99.90
22623;DHT22;11478;51.094;7.030;2023-05-06T12:28:30;21.40;99.90
22623;DHT22;11478;51.094;7.030;2023-05-06T12:30:56;21.50;99.90
22623;DHT22;11478;51.094;7.030;2023-05-06T12:33:24;21.60;99.90
22623;DHT22;11478;51.094;7.030;2023-05-06T12:35:53;21.70;99.90
22623;DHT22;11478;51.094;7.030;2023-05-06T12:38:23;21.70;99.90
22623;DHT22;11478;51.094;7.030;2023-05-06T12:40:53;21.80;99.90
22623;DHT22;11478;51.094;7.030;2023-05-06T12:43:28;21.90;99.90
22623;DHT22;11478;51.094;7.030;2023-05-06T12:46:07;21.90;99.90
22623;DHT22;11478;51.094;7.030;2023-05-06T12:48:59;21.90;99.90
22623;DHT22;11478;51.094;7.030;2023-05-06T12:51:25;21.80;99.90
22623;DHT22;11478;51.094;7.030;2023-05-06T12:53:53;21.50;99.90
22623;DHT22;11478;51.094;7.030;2023-05-06T12:56:19;21.40;99.90
22623;DHT22;11478;51.094;7.030;2023-05-06T12:59:02;21.40;99.90
22623;DHT22;11478;51.094;7.030;2023-05-06T13:01:28;21.50;99.90
22623;DHT22;11478;51.094;7.030;2023-05-06T13:03:57;21.40;99.90
22623;DHT22;11478;51.094;7.030;2023-05-06T13:06:23;21.40;99.90
22623;DHT22;11478;51.094;7.030;2023-05-06T13:08:55;21.40;99.90
22623;DHT22;11478;51.094;7.030;2023-05-06T13:11:21;21.30;99.90
22623;DHT22;11478;51.094;7.030;2023-05-06T13:13:51;21.20;99.90
22623;DHT22;11478;51.094;7.030;2023-05-06T13:16:17;21.20;99.90
22623;DHT22;11478;51.094;7.030;2023-05-06T13:18:43;21.20;99.90
22623;DHT22;11478;51.094;7.030;2023-05-06T13:21:48;21.10;99.90
22623;DHT22;11478;51.094;7.030;2023-05-06T13:32:50;20.90;99.90
22623;DHT22;11478;51.094;7.030;2023-05-06T13:35:16;20.80;99.90
22623;DHT22;11478;51.094;7.030;2023-05-06T13:37:49;20.70;99.90
22623;DHT22;11478;51.094;7.030;2023-05-06T13:40:15;20.60;99.90
22623;DHT22;11478;51.094;7.030;2023-05-06T13:42:43;20.60;99.90
22623;DHT22;11478;51.094;7.030;2023-05-06T13:45:09;20.50;99.90
22623;DHT22;11478;51.094;7.030;2023-05-06T13:47:35;20.40;99.90
22623;DHT22;11478;51.094;7.030;2023-05-06T13:50:01;20.40;99.90
22623;DHT22;11478;51.094;7.030;2023-05-06T13:52:30;20.30;99.90
22623;DHT22;11478;51.094;7.030;2023-05-06T13:54:56;20.10;99.90
22623;DHT22;11478;51.094;7.030;2023-05-06T13:57:24;20.00;99.90
22623;DHT22;11478;51.094;7.030;2023-05-06T13:59:50;19.90;99.90
22623;DHT22;11478;51.094;7.030;2023-05-06T14:02:18;19.70;99.90
22623;DHT22;11478;51.094;7.030;2023-05-06T14:07:55;19.50;99.90
22623;DHT22;11478;51.094;7.030;2023-05-06T14:10:21;19.30;99.90
22623;DHT22;11478;51.094;7.030;2023-05-06T14:12:47;19.30;99.90
22623;DHT22;11478;51.094;7.030;2023-05-06T14:15:13;19.20;99.90
22623;DHT22;11478;51.094;7.030;2023-05-06T14:17:49;19.10;99.90
22623;DHT22;11478;51.094;7.030;2023-05-06T14:20:15;19.10;99.90
22623;DHT22;11478;51.094;7.030;2023-05-06T14:22:44;19.00;99.90
22623;DHT22;11478;51.094;7.030;2023-05-06T14:25:10;18.90;99.90
22623;DHT22;11478;51.094;7.030;2023-05-06T14:27:38;18.80;99.90
22623;DHT22;11478;51.094;7.030;2023-05-06T14:30:11;18.80;99.90
22623;DHT22;11478;51.094;7.030;2023-05-06T14:32:40;18.70;99.90
22623;DHT22;11478;51.094;7.030;2023-05-06T14:35:17;18.80;99.90
22623;DHT22;11478;51.094;7.030;2023-05-06T14:37:43;18.70;99.90
22623;DHT22;11478;51.094;7.030;2023-05-06T14:40:11;18.60;99.90
22623;DHT22;11478;51.094;7.030;2023-05-06T14:42:37;18.40;99.90
22623;DHT22;11478;51.094;7.030;2023-05-06T14:45:03;18.20;99.90
22623;DHT22;11478;51.094;7.030;2023-05-06T14:47:29;17.90;99.90
22623;DHT22;11478;51.094;7.030;2023-05-06T14:49:56;17.70;99.90
22623;DHT22;11478;51.094;7.030;2023-05-06T14:52:22;17.60;99.90
22623;DHT22;11478;51.094;7.030;2023-05-06T14:54:49;17.40;99.90
22623;DHT22;11478;51.094;7.030;2023-05-06T14:57:15;17.30;99.90
22623;DHT22;11478;51.094;7.030;2023-05-06T14:59:41;17.20;99.90
22623;DHT22;11478;51.094;7.030;2023-05-06T15:02:08;17.10;99.90
22623;DHT22;11478;51.094;7.030;2023-05-06T15:04:40;16.90;99.90
22623;DHT22;11478;51.094;7.030;2023-05-06T15:07:08;16.70;99.90
22623;DHT22;11478;51.094;7.030;2023-05-06T15:09:38;16.60;99.90
22623;DHT22;11478;51.094;7.030;2023-05-06T15:12:11;16.40;99.90
22623;DHT22;11478;51.094;7.030;2023-05-06T15:14:47;16.20;99.90
22623;DHT22;11478;51.094;7.030;2023-05-06T15:17:12;16.10;99.90
22623;DHT22;11478;51.094;7.030;2023-05-06T15:19:40;15.90;99.90
22623;DHT22;11478;51.094;7.030;2023-05-06T15:22:06;15.90;99.90
22623;DHT22;11478;51.094;7.030;2023-05-06T15:24:34;15.80;99.90
22623;DHT22;11478;51.094;7.030;2023-05-06T15:27:00;15.70;99.90
22623;DHT22;11478;51.094;7.030;2023-05-06T15:29:27;15.70;99.90
22623;DHT22;11478;51.094;7.030;2023-05-06T15:31:54;15.60;99.90
22623;DHT22;11478;51.094;7.030;2023-05-06T15:34:20;15.50;99.90
22623;DHT22;11478;51.094;7.030;2023-05-06T15:36:51;15.60;99.90
22623;DHT22;11478;51.094;7.030;2023-05-06T15:39:18;15.50;99.90
22623;DHT22;11478;51.094;7.030;2023-05-06T15:41:58;15.50;99.90
22623;DHT22;11478;51.094;7.030;2023-05-06T15:44:24;15.50;99.90
22623;DHT22;11478;51.094;7.030;2023-05-06T15:46:54;15.60;99.90
22623;DHT22;11478;51.094;7.030;2023-05-06T15:49:19;15.50;99.90
22623;DHT22;11478;51.094;7.030;2023-05-06T15:51:46;15.50;99.90
22623;DHT22;11478;51.094;7.030;2023-05-06T15:54:15;15.50;99.90
22623;DHT22;11478;51.094;7.030;2023-05-06T15:56:48;15.50;99.90
22623;DHT22;11478;51.094;7.030;2023-05-06T15:59:14;15.50;99.90
22623;DHT22;11478;51.094;7.030;2023-05-06T16:01:40;15.50;99.90
22623;DHT22;11478;51.094;7.030;2023-05-06T16:04:06;15.50;99.90
22623;DHT22;11478;51.094;7.030;2023-05-06T16:06:36;15.40;99.90
22623;DHT22;11478;51.094;7.030;2023-05-06T16:09:01;15.40;99.90
22623;DHT22;11478;51.094;7.030;2023-05-06T16:11:29;15.40;99.90
22623;DHT22;11478;51.094;7.030;2023-05-06T16:13:55;15.40;99.90
22623;DHT22;11478;51.094;7.030;2023-05-06T16:16:21;15.40;99.90